Time;durP1;ratioP1;P1;durP2;ratioP2;P2;SDS_P1;SDS_P2;PMS_P1;PMS_P2;Temp;Humidity;BMP_temperature;BMP_pressure;BME280_temperature;BME280_humidity;BME280_pressure;Samples;Min_cycle;Max_cycle;Signal;HPM_P1;HPM_P2
2022/08/22 00:02:12;;;;;;;5.87;3.30;;;;;;;;;;5086593;28;20203;-75
2022/08/22 00:04:41;;;;;;;5.00;3.00;;;;;;;;;;5063249;28;20725;-75
2022/08/22 00:07:28;;;;;;;6.70;3.47;;;;;;;;;;5087706;28;20195;-75
2022/08/22 00:09:57;;;;;;;5.17;3.47;;;;;;;;;;5078807;28;20249;-76
2022/08/22 00:12:35;;;;;;;5.50;3.17;;;;;;;;;;5088788;28;20225;-75
2022/08/22 00:15:06;;;;;;;4.80;3.20;;;;;;;;;;5090263;28;20188;-75
2022/08/22 00:17:32;;;;;;;5.00;3.43;;;;;;;;;;5089872;28;20184;-75
2022/08/22 00:20:04;;;;;;;4.67;3.23;;;;;;;;;;5090673;28;20198;-76
2022/08/22 00:22:35;;;;;;;4.63;3.20;;;;;;;;;;5091538;28;20279;-75
2022/08/22 00:25:14;;;;;;;5.90;3.40;;;;;;;;;;5091609;28;20177;-75
2022/08/22 00:27:53;;;;;;;5.13;3.30;;;;;;;;;;5093650;28;20173;-75
2022/08/22 00:30:19;;;;;;;4.37;3.27;;;;;;;;;;5094628;28;20160;-75
2022/08/22 00:32:48;;;;;;;6.00;3.07;;;;;;;;;;5092721;28;20268;-74
2022/08/22 00:35:17;;;;;;;5.30;3.00;;;;;;;;;;5080139;28;20291;-75
2022/08/22 00:37:46;;;;;;;4.20;3.30;;;;;;;;;;5094035;28;20181;-75
2022/08/22 00:40:29;;;;;;;5.13;2.90;;;;;;;;;;5091115;28;20229;-75
2022/08/22 00:42:55;;;;;;;5.43;2.97;;;;;;;;;;5091559;28;20208;-76
2022/08/22 00:45:21;;;;;;;4.93;3.07;;;;;;;;;;5093243;28;20209;-76
2022/08/22 00:48:03;;;;;;;5.20;3.17;;;;;;;;;;5092412;28;20233;-76
2022/08/22 00:50:36;;;;;;;4.80;3.17;;;;;;;;;;5089773;28;20184;-75
2022/08/22 00:53:21;;;;;;;5.03;3.60;;;;;;;;;;5085702;28;20211;-75
2022/08/22 00:55:53;;;;;;;3.90;3.30;;;;;;;;;;5090197;28;20289;-76
2022/08/22 00:58:28;;;;;;;6.40;3.57;;;;;;;;;;5089703;28;20176;-75
2022/08/22 01:01:02;;;;;;;7.10;3.50;;;;;;;;;;5088970;28;20187;-76
2022/08/22 01:03:44;;;;;;;5.37;3.70;;;;;;;;;;5093150;28;20239;-75
2022/08/22 01:06:23;;;;;;;6.20;3.63;;;;;;;;;;5099086;28;20630;-75
2022/08/22 01:09:02;;;;;;;6.47;3.90;;;;;;;;;;5093236;28;20538;-75
2022/08/22 01:11:34;;;;;;;4.70;3.30;;;;;;;;;;5089141;28;20187;-75
2022/08/22 01:14:19;;;;;;;5.87;3.77;;;;;;;;;;5087827;28;20589;-75
2022/08/22 01:16:48;;;;;;;4.33;3.30;;;;;;;;;;5085821;28;20630;-75
2022/08/22 01:19:33;;;;;;;7.60;4.10;;;;;;;;;;5085431;28;20232;-75
2022/08/22 01:22:19;;;;;;;7.20;4.57;;;;;;;;;;5085586;28;20638;-75
2022/08/22 01:27:51;;;;;;;5.90;3.80;;;;;;;;;;5078665;28;20655;-75
2022/08/22 01:30:27;;;;;;;8.13;4.50;;;;;;;;;;5086133;28;20204;-75
2022/08/22 01:32:53;;;;;;;5.40;4.27;;;;;;;;;;5089798;28;20670;-75
2022/08/22 01:35:38;;;;;;;6.87;4.20;;;;;;;;;;5087740;28;20214;-75
2022/08/22 01:38:04;;;;;;;5.13;4.37;;;;;;;;;;5091442;28;20229;-75
2022/08/22 01:40:34;;;;;;;6.00;4.20;;;;;;;;;;5074321;28;20216;-76
2022/08/22 01:43:00;;;;;;;9.23;4.60;;;;;;;;;;5092882;28;20287;-75
2022/08/22 01:45:45;;;;;;;5.23;3.80;;;;;;;;;;5087118;28;20184;-77
2022/08/22 01:48:23;;;;;;;6.40;3.80;;;;;;;;;;5086903;28;20180;-75
2022/08/22 01:50:52;;;;;;;6.07;3.90;;;;;;;;;;5091001;28;20215;-75
2022/08/22 01:53:39;;;;;;;6.83;4.03;;;;;;;;;;5088141;28;20291;-75
2022/08/22 01:56:22;;;;;;;4.67;3.90;;;;;;;;;;5085641;28;20735;-75
2022/08/22 01:58:57;;;;;;;6.53;4.00;;;;;;;;;;5085034;28;20736;-75
2022/08/22 02:01:32;;;;;;;5.80;3.73;;;;;;;;;;5087164;28;20177;-75
2022/08/22 02:04:03;;;;;;;6.00;3.63;;;;;;;;;;5086073;28;20192;-75
2022/08/22 02:06:37;;;;;;;5.90;3.90;;;;;;;;;;5086338;28;20208;-75
2022/08/22 02:09:10;;;;;;;4.13;3.70;;;;;;;;;;5087956;28;20182;-75
2022/08/22 02:11:36;;;;;;;4.03;3.30;;;;;;;;;;5090899;28;20189;-75
2022/08/22 02:14:21;;;;;;;7.03;3.93;;;;;;;;;;5086627;28;20215;-75
2022/08/22 02:16:51;;;;;;;6.80;3.90;;;;;;;;;;5091148;28;20219;-75
2022/08/22 02:19:22;;;;;;;6.13;3.63;;;;;;;;;;5088638;28;20716;-75
2022/08/22 02:21:52;;;;;;;7.10;4.37;;;;;;;;;;5087058;28;20212;-75
2022/08/22 02:24:24;;;;;;;5.33;4.10;;;;;;;;;;5087662;28;20169;-74
2022/08/22 02:26:53;;;;;;;5.60;3.80;;;;;;;;;;5088886;28;20233;-75
2022/08/22 02:29:23;;;;;;;7.07;3.80;;;;;;;;;;5086250;28;20671;-76
2022/08/22 02:32:08;;;;;;;9.80;4.50;;;;;;;;;;5090767;28;20236;-75
2022/08/22 02:34:43;;;;;;;4.67;3.77;;;;;;;;;;5085928;28;20556;-75
2022/08/22 02:37:15;;;;;;;3.93;3.50;;;;;;;;;;5091791;28;20211;-75
2022/08/22 02:39:45;;;;;;;5.73;3.40;;;;;;;;;;5089104;28;20185;-75
2022/08/22 02:42:35;;;;;;;5.10;3.50;;;;;;;;;;5092326;28;20197;-76
2022/08/22 02:45:20;;;;;;;4.60;3.57;;;;;;;;;;5089455;28;20184;-76
2022/08/22 02:48:04;;;;;;;5.17;3.30;;;;;;;;;;5092754;28;20248;-75
2022/08/22 02:50:40;;;;;;;6.03;3.63;;;;;;;;;;5091442;28;20263;-75
2022/08/22 02:53:21;;;;;;;4.77;3.40;;;;;;;;;;5088841;28;20288;-75
2022/08/22 02:55:47;;;;;;;5.97;3.47;;;;;;;;;;5092553;28;20203;-77
2022/08/22 02:58:29;;;;;;;3.87;3.20;;;;;;;;;;5088782;28;20195;-75
2022/08/22 03:00:58;;;;;;;4.93;3.80;;;;;;;;;;5090488;28;20268;-77
2022/08/22 03:03:30;;;;;;;5.47;3.77;;;;;;;;;;5086797;28;20205;-75
2022/08/22 03:06:02;;;;;;;4.53;3.60;;;;;;;;;;5084578;28;20192;-75
2022/08/22 03:08:28;;;;;;;4.50;3.60;;;;;;;;;;5084585;28;20265;-76
2022/08/22 03:11:12;;;;;;;5.80;3.80;;;;;;;;;;5081283;28;20177;-75
2022/08/22 03:14:03;;;;;;;4.80;3.90;;;;;;;;;;5088641;28;20285;-76
2022/08/22 03:16:44;;;;;;;5.80;3.30;;;;;;;;;;5084687;28;20196;-75
2022/08/22 03:19:13;;;;;;;4.57;3.20;;;;;;;;;;5092942;28;20190;-75
2022/08/22 03:21:43;;;;;;;4.47;3.90;;;;;;;;;;5089050;28;20180;-75
2022/08/22 03:24:30;;;;;;;5.33;3.67;;;;;;;;;;5098095;28;20164;-75
2022/08/22 03:27:01;;;;;;;5.10;3.60;;;;;;;;;;5085631;28;20172;-75
2022/08/22 03:29:29;;;;;;;5.47;4.20;;;;;;;;;;5094334;28;20639;-75
2022/08/22 03:32:04;;;;;;;7.77;4.50;;;;;;;;;;5090520;28;20191;-75
2022/08/22 03:34:30;;;;;;;5.40;4.53;;;;;;;;;;5084252;28;20265;-75
2022/08/22 03:37:15;;;;;;;5.67;4.30;;;;;;;;;;5093598;28;20204;-76
2022/08/22 03:39:46;;;;;;;4.60;3.83;;;;;;;;;;5096428;28;20632;-75
2022/08/22 03:42:16;;;;;;;4.80;4.13;;;;;;;;;;5086413;28;20192;-75
2022/08/22 03:45:01;;;;;;;5.03;3.70;;;;;;;;;;5090085;28;20271;-75
2022/08/22 03:47:33;;;;;;;5.10;3.63;;;;;;;;;;5087934;28;20651;-75
2022/08/22 03:50:03;;;;;;;5.43;3.70;;;;;;;;;;5089847;28;20203;-75
2022/08/22 03:52:29;;;;;;;5.90;3.80;;;;;;;;;;5086145;28;20568;-75
2022/08/22 03:55:14;;;;;;;6.13;4.00;;;;;;;;;;5094002;28;20263;-75
2022/08/22 03:57:40;;;;;;;7.03;3.93;;;;;;;;;;5101256;28;20624;-75
2022/08/22 04:00:41;;;;;;;5.97;4.30;;;;;;;;;;5093773;28;20176;-75
2022/08/22 04:03:13;;;;;;;6.07;4.17;;;;;;;;;;5010525;28;20307;-76
2022/08/22 04:05:49;;;;;;;5.38;4.30;;;;;;;;;;5077482;28;20430;-75
2022/08/22 04:08:31;;;;;;;4.87;3.97;;;;;;;;;;5091084;28;20180;-76
2022/08/22 04:11:10;;;;;;;7.43;4.17;;;;;;;;;;5092708;28;20180;-75
2022/08/22 04:13:36;;;;;;;5.67;4.03;;;;;;;;;;5093530;28;20215;-75
2022/08/22 04:16:09;;;;;;;7.90;3.97;;;;;;;;;;5094294;28;20215;-75
2022/08/22 04:18:52;;;;;;;7.63;4.10;;;;;;;;;;5092976;28;20255;-75
2022/08/22 04:21:27;;;;;;;4.70;3.97;;;;;;;;;;5090626;28;20550;-75
2022/08/22 04:24:06;;;;;;;5.20;4.00;;;;;;;;;;5091817;28;20191;-75
2022/08/22 04:26:40;;;;;;;4.50;3.50;;;;;;;;;;5090063;28;20187;-75
2022/08/22 04:29:29;;;;;;;5.97;4.40;;;;;;;;;;5089008;28;20180;-75
2022/08/22 04:32:00;;;;;;;5.57;3.87;;;;;;;;;;5065596;28;20208;-75
2022/08/22 04:34:36;;;;;;;4.37;3.70;;;;;;;;;;5075097;28;20870;-75
2022/08/22 04:37:09;;;;;;;7.67;4.07;;;;;;;;;;5088455;28;20215;-75
2022/08/22 04:39:35;;;;;;;5.40;3.87;;;;;;;;;;5086813;28;20671;-75
2022/08/22 04:42:05;;;;;;;8.17;4.50;;;;;;;;;;5089973;28;20184;-75
2022/08/22 04:44:43;;;;;;;7.37;3.97;;;;;;;;;;5087889;28;20173;-76
2022/08/22 04:47:17;;;;;;;8.20;4.30;;;;;;;;;;5094002;28;20221;-75
2022/08/22 04:49:47;;;;;;;5.90;3.93;;;;;;;;;;5087329;28;20914;-75
2022/08/22 04:52:32;;;;;;;5.47;4.07;;;;;;;;;;5091519;28;20204;-76
2022/08/22 04:55:16;;;;;;;5.37;4.00;;;;;;;;;;5092755;28;20287;-75
2022/08/22 04:57:55;;;;;;;5.67;4.30;;;;;;;;;;5092039;28;20199;-75
2022/08/22 05:00:22;;;;;;;6.47;4.40;;;;;;;;;;5080310;28;20172;-75
2022/08/22 05:02:50;;;;;;;6.13;4.03;;;;;;;;;;5090017;28;20200;-76
2022/08/22 05:05:27;;;;;;;5.20;3.90;;;;;;;;;;5088864;28;20511;-75
2022/08/22 05:07:55;;;;;;;5.57;3.97;;;;;;;;;;5078779;28;20169;-74
2022/08/22 05:10:21;;;;;;;5.10;4.00;;;;;;;;;;5088230;28;20193;-75
2022/08/22 05:13:08;;;;;;;5.93;4.20;;;;;;;;;;5092542;28;20223;-75
2022/08/22 05:15:39;;;;;;;5.83;4.20;;;;;;;;;;5090117;28;20698;-75
2022/08/22 05:18:12;;;;;;;4.83;4.30;;;;;;;;;;5093644;28;20235;-74
2022/08/22 05:20:39;;;;;;;10.67;6.80;;;;;;;;;;5091823;28;20189;-75
2022/08/22 05:23:16;;;;;;;9.80;5.57;;;;;;;;;;5093293;28;20271;-74
2022/08/22 05:25:43;;;;;;;7.70;5.33;;;;;;;;;;5092923;28;20213;-74
2022/08/22 05:28:13;;;;;;;8.03;5.20;;;;;;;;;;5090586;28;20200;-74
2022/08/22 05:30:39;;;;;;;6.73;4.73;;;;;;;;;;5096194;28;20183;-74
2022/08/22 05:33:18;;;;;;;6.40;4.50;;;;;;;;;;5096812;28;20646;-75
2022/08/22 05:35:47;;;;;;;7.73;4.90;;;;;;;;;;5091090;28;20204;-75
2022/08/22 05:38:15;;;;;;;8.47;4.70;;;;;;;;;;5092740;28;20173;-75
2022/08/22 05:40:42;;;;;;;8.63;5.10;;;;;;;;;;5089068;28;20189;-75
2022/08/22 05:43:12;;;;;;;12.50;5.30;;;;;;;;;;5091103;28;20202;-75
2022/08/22 05:45:39;;;;;;;7.80;4.80;;;;;;;;;;5089832;28;20218;-75
2022/08/22 05:48:14;;;;;;;6.23;4.87;;;;;;;;;;5088439;28;20619;-75
2022/08/22 05:50:42;;;;;;;9.30;4.87;;;;;;;;;;5089699;28;20286;-75
2022/08/22 05:53:08;;;;;;;7.87;5.47;;;;;;;;;;5095935;28;20687;-75
2022/08/22 05:55:53;;;;;;;6.97;5.27;;;;;;;;;;5093887;28;20206;-76
2022/08/22 05:58:38;;;;;;;6.87;5.30;;;;;;;;;;5090444;28;20175;-75
2022/08/22 06:01:22;;;;;;;8.33;4.90;;;;;;;;;;5097705;28;20556;-75
2022/08/22 06:03:56;;;;;;;8.77;5.17;;;;;;;;;;5093960;28;20200;-76
2022/08/22 06:06:22;;;;;;;5.87;4.23;;;;;;;;;;5086239;28;20189;-77
2022/08/22 06:08:57;;;;;;;8.50;4.40;;;;;;;;;;5092055;28;20185;-78
2022/08/22 06:11:26;;;;;;;12.37;4.83;;;;;;;;;;5084421;28;20188;-77
2022/08/22 06:13:57;;;;;;;8.13;4.70;;;;;;;;;;5091952;28;20250;-77
2022/08/22 06:16:31;;;;;;;7.93;4.60;;;;;;;;;;5089509;28;20208;-77
2022/08/22 06:18:58;;;;;;;10.57;5.27;;;;;;;;;;5083935;28;20169;-77
2022/08/22 06:21:36;;;;;;;11.77;5.13;;;;;;;;;;5084379;28;20234;-77
2022/08/22 06:24:04;;;;;;;9.10;5.47;;;;;;;;;;5090876;28;20738;-77
2022/08/22 06:26:42;;;;;;;6.93;4.70;;;;;;;;;;5086463;28;20302;-76
2022/08/22 06:29:10;;;;;;;7.13;5.00;;;;;;;;;;5092096;28;20192;-76
2022/08/22 06:31:40;;;;;;;9.33;5.27;;;;;;;;;;5088596;28;20581;-75
2022/08/22 06:34:15;;;;;;;7.53;4.40;;;;;;;;;;5091363;28;20208;-76
2022/08/22 06:36:43;;;;;;;8.23;5.07;;;;;;;;;;5086861;28;20204;-76
2022/08/22 06:39:19;;;;;;;9.03;4.47;;;;;;;;;;5054605;28;20219;-76
2022/08/22 06:41:51;;;;;;;7.47;4.23;;;;;;;;;;5089234;28;20191;-77
2022/08/22 06:44:20;;;;;;;7.20;4.80;;;;;;;;;;5083146;28;20656;-77
2022/08/22 06:46:47;;;;;;;11.67;5.30;;;;;;;;;;5084923;28;20181;-74
2022/08/22 06:49:15;;;;;;;8.93;4.30;;;;;;;;;;5085785;28;20180;-75
2022/08/22 06:51:42;;;;;;;6.33;4.03;;;;;;;;;;5084798;28;20238;-73
2022/08/22 06:54:13;;;;;;;9.33;4.50;;;;;;;;;;5081328;28;20208;-72
2022/08/22 06:56:41;;;;;;;6.27;3.70;;;;;;;;;;5086484;28;20338;-77
2022/08/22 06:59:15;;;;;;;10.40;4.20;;;;;;;;;;5088095;28;20836;-78
2022/08/22 07:01:48;;;;;;;5.93;4.17;;;;;;;;;;5085343;28;20176;-75
2022/08/22 07:04:15;;;;;;;7.67;4.33;;;;;;;;;;5084341;28;20184;-72
2022/08/22 07:06:48;;;;;;;6.97;4.47;;;;;;;;;;5089308;28;20185;-76
2022/08/22 07:09:27;;;;;;;5.83;3.97;;;;;;;;;;5084524;28;20173;-77
2022/08/22 07:11:54;;;;;;;7.43;4.30;;;;;;;;;;5086155;28;20207;-76
2022/08/22 07:14:39;;;;;;;5.33;3.97;;;;;;;;;;5087813;28;20660;-76
2022/08/22 07:17:07;;;;;;;3.70;3.30;;;;;;;;;;5088138;28;20216;-76
2022/08/22 07:19:35;;;;;;;4.97;3.63;;;;;;;;;;5089157;28;20173;-76
2022/08/22 07:22:16;;;;;;;5.47;4.20;;;;;;;;;;5083987;28;20187;-76
2022/08/22 07:24:46;;;;;;;7.20;4.03;;;;;;;;;;5087566;28;20177;-77
2022/08/22 07:27:21;;;;;;;7.43;4.30;;;;;;;;;;5089247;28;20681;-77
2022/08/22 07:29:50;;;;;;;7.00;5.03;;;;;;;;;;5086808;28;21001;-75
2022/08/22 07:32:24;;;;;;;6.23;3.77;;;;;;;;;;5087390;28;20584;-76
2022/08/22 07:35:02;;;;;;;7.90;6.70;;;;;;;;;;5085822;28;20177;-78
2022/08/22 07:37:47;;;;;;;5.20;4.30;;;;;;;;;;5090765;28;20237;-76
2022/08/22 07:40:19;;;;;;;8.00;4.50;;;;;;;;;;5084229;28;20283;-76
2022/08/22 07:42:57;;;;;;;6.90;4.17;;;;;;;;;;5093558;28;20203;-75
2022/08/22 07:45:36;;;;;;;5.70;3.60;;;;;;;;;;5051323;28;20203;-75
2022/08/22 07:48:08;;;;;;;8.77;4.20;;;;;;;;;;5089331;28;20591;-73
2022/08/22 07:50:38;;;;;;;4.77;4.20;;;;;;;;;;5083772;28;20180;-71
2022/08/22 07:53:19;;;;;;;7.33;4.47;;;;;;;;;;5090410;28;20234;-71
2022/08/22 07:55:46;;;;;;;5.23;4.00;;;;;;;;;;5087758;28;20715;-73
2022/08/22 07:58:14;;;;;;;6.57;4.13;;;;;;;;;;5080308;28;20180;-72
2022/08/22 08:00:45;;;;;;;5.87;3.77;;;;;;;;;;5086245;28;20597;-72
2022/08/22 08:03:12;;;;;;;6.20;4.13;;;;;;;;;;5085161;28;20208;-75
2022/08/22 08:05:40;;;;;;;7.50;4.17;;;;;;;;;;5088371;28;20276;-74
2022/08/22 08:08:25;;;;;;;8.53;4.40;;;;;;;;;;5083696;28;20181;-73
2022/08/22 08:10:53;;;;;;;7.13;3.87;;;;;;;;;;5094147;28;20271;-72
2022/08/22 08:13:23;;;;;;;6.83;4.33;;;;;;;;;;5087363;28;20265;-72
2022/08/22 08:15:50;;;;;;;6.07;4.10;;;;;;;;;;5085641;28;20579;-72
2022/08/22 08:18:22;;;;;;;5.50;3.97;;;;;;;;;;5086843;28;20184;-72
2022/08/22 08:20:53;;;;;;;5.77;4.20;;;;;;;;;;5081065;28;20242;-72
2022/08/22 08:23:20;;;;;;;6.57;3.93;;;;;;;;;;5087912;28;20196;-71
2022/08/22 08:26:07;;;;;;;5.60;3.87;;;;;;;;;;5084515;28;20281;-76
2022/08/22 08:28:38;;;;;;;6.80;3.90;;;;;;;;;;5082363;28;20188;-72
2022/08/22 08:31:10;;;;;;;5.97;3.87;;;;;;;;;;5069585;28;20248;-71
2022/08/22 08:33:39;;;;;;;6.50;3.77;;;;;;;;;;5088807;28;20216;-72
2022/08/22 08:36:41;;;;;;;7.13;4.20;;;;;;;;;;5086859;28;20219;-72
2022/08/22 08:39:18;;;;;;;7.37;3.80;;;;;;;;;;5029458;28;20189;-74
2022/08/22 08:42:14;;;;;;;5.20;3.90;;;;;;;;;;5077851;28;20206;-74
2022/08/22 08:44:44;;;;;;;6.60;4.20;;;;;;;;;;5068085;28;20181;-71
2022/08/22 08:47:39;;;;;;;6.47;4.00;;;;;;;;;;5099052;28;20523;-71
2022/08/22 08:50:19;;;;;;;5.80;3.90;;;;;;;;;;5017473;28;20599;-71
2022/08/22 08:52:52;;;;;;;8.93;4.10;;;;;;;;;;5091302;28;20729;-75
2022/08/22 08:55:22;;;;;;;5.83;3.90;;;;;;;;;;5087282;28;20180;-72
2022/08/22 08:57:58;;;;;;;5.07;3.87;;;;;;;;;;5090083;28;20181;-71
2022/08/22 09:00:43;;;;;;;4.20;3.43;;;;;;;;;;5090988;28;20274;-72
2022/08/22 09:03:25;;;;;;;6.13;3.80;;;;;;;;;;5087294;28;20325;-71
2022/08/22 09:06:01;;;;;;;7.53;4.10;;;;;;;;;;5091612;28;20196;-72
2022/08/22 09:08:33;;;;;;;4.33;3.33;;;;;;;;;;5087354;28;20200;-72
2022/08/22 09:11:20;;;;;;;5.50;3.97;;;;;;;;;;5082111;28;20181;-71
2022/08/22 09:13:55;;;;;;;4.50;3.53;;;;;;;;;;5088243;28;20248;-73
2022/08/22 09:16:41;;;;;;;7.40;3.77;;;;;;;;;;5089086;28;20215;-73
2022/08/22 09:19:26;;;;;;;5.47;3.50;;;;;;;;;;5094298;28;20250;-72
2022/08/22 09:22:04;;;;;;;4.60;3.47;;;;;;;;;;5091112;28;20204;-71
2022/08/22 09:24:45;;;;;;;4.27;3.70;;;;;;;;;;5083682;28;20181;-71
2022/08/22 09:27:22;;;;;;;3.80;3.23;;;;;;;;;;5080172;28;20193;-71
2022/08/22 09:29:55;;;;;;;4.27;3.53;;;;;;;;;;5092079;28;20198;-72
2022/08/22 09:32:27;;;;;;;3.87;3.40;;;;;;;;;;5089139;28;20571;-74
2022/08/22 09:35:16;;;;;;;4.97;3.80;;;;;;;;;;5088774;28;20230;-72
2022/08/22 09:37:48;;;;;;;3.90;3.43;;;;;;;;;;5090780;28;20182;-73
2022/08/22 09:40:20;;;;;;;5.40;3.80;;;;;;;;;;5086733;28;20185;-71
2022/08/22 09:42:52;;;;;;;4.13;3.63;;;;;;;;;;5101362;28;20285;-72
2022/08/22 09:45:33;;;;;;;3.73;3.20;;;;;;;;;;5082169;28;20182;-72
2022/08/22 09:48:09;;;;;;;5.03;3.70;;;;;;;;;;5099860;28;20178;-71
2022/08/22 09:50:51;;;;;;;4.07;3.63;;;;;;;;;;5087927;28;20171;-72
2022/08/22 09:53:20;;;;;;;4.33;3.70;;;;;;;;;;5092016;28;20197;-72
2022/08/22 09:55:55;;;;;;;4.03;3.30;;;;;;;;;;5088262;28;20219;-71
2022/08/22 09:58:37;;;;;;;4.17;3.50;;;;;;;;;;5086671;28;20211;-75
2022/08/22 10:01:10;;;;;;;5.27;3.60;;;;;;;;;;5089694;28;20173;-71
2022/08/22 10:03:45;;;;;;;4.60;3.43;;;;;;;;;;5082031;28;20192;-73
2022/08/22 10:06:17;;;;;;;6.37;3.67;;;;;;;;;;5071607;28;20528;-77
2022/08/22 10:08:53;;;;;;;4.23;3.50;;;;;;;;;;5085746;28;20182;-73
2022/08/22 10:11:32;;;;;;;4.43;3.73;;;;;;;;;;5087395;28;20317;-75
2022/08/22 10:14:09;;;;;;;5.73;3.70;;;;;;;;;;5091801;28;20260;-76
2022/08/22 10:16:41;;;;;;;4.50;3.33;;;;;;;;;;5086623;28;20771;-75
2022/08/22 10:19:07;;;;;;;8.60;3.73;;;;;;;;;;5088754;28;20184;-75
2022/08/22 10:21:51;;;;;;;6.27;3.70;;;;;;;;;;5083300;28;20191;-76
2022/08/22 10:24:17;;;;;;;3.83;3.43;;;;;;;;;;5086817;28;20186;-77
2022/08/22 10:26:49;;;;;;;4.30;3.03;;;;;;;;;;5088697;28;20196;-74
2022/08/22 10:29:18;;;;;;;5.07;3.20;;;;;;;;;;5086299;28;20188;-74
2022/08/22 10:31:50;;;;;;;5.13;3.50;;;;;;;;;;5081631;28;20189;-72
2022/08/22 10:34:21;;;;;;;6.23;3.63;;;;;;;;;;5085370;28;20792;-75
2022/08/22 10:37:01;;;;;;;3.77;3.00;;;;;;;;;;5087235;28;20297;-76
2022/08/22 10:39:36;;;;;;;4.37;3.00;;;;;;;;;;5086900;28;20218;-75
2022/08/22 10:42:18;;;;;;;3.43;2.80;;;;;;;;;;5081771;28;20206;-73
2022/08/22 10:44:54;;;;;;;4.13;3.10;;;;;;;;;;5083965;28;20204;-73
2022/08/22 10:47:23;;;;;;;3.50;2.80;;;;;;;;;;5086689;28;20267;-73
2022/08/22 10:49:52;;;;;;;3.57;2.80;;;;;;;;;;5079138;28;20335;-75
2022/08/22 10:52:24;;;;;;;3.97;3.40;;;;;;;;;;5084984;28;20299;-72
2022/08/22 10:55:09;;;;;;;3.27;2.90;;;;;;;;;;5086443;28;20676;-73
2022/08/22 10:57:58;;;;;;;4.60;2.77;;;;;;;;;;5083022;28;20188;-75
2022/08/22 11:00:27;;;;;;;3.47;2.80;;;;;;;;;;5081847;28;20283;-77
2022/08/22 11:03:01;;;;;;;3.73;2.87;;;;;;;;;;5085928;28;20212;-76
2022/08/22 11:05:36;;;;;;;5.23;3.10;;;;;;;;;;5084450;28;20275;-75
2022/08/22 11:08:05;;;;;;;3.93;2.70;;;;;;;;;;5081586;28;20188;-76
2022/08/22 11:10:58;;;;;;;3.40;2.77;;;;;;;;;;5082793;28;20244;-76
2022/08/22 11:13:32;;;;;;;4.17;2.80;;;;;;;;;;5061810;28;20639;-75
2022/08/22 11:16:02;;;;;;;3.50;2.90;;;;;;;;;;5089487;28;20679;-76
2022/08/22 11:18:37;;;;;;;3.10;2.80;;;;;;;;;;5084312;28;20180;-76
2022/08/22 11:21:05;;;;;;;4.47;2.70;;;;;;;;;;5087843;28;20188;-75
2022/08/22 11:23:35;;;;;;;3.27;2.60;;;;;;;;;;5087826;28;20233;-75
2022/08/22 11:26:12;;;;;;;2.50;2.30;;;;;;;;;;5083522;28;20184;-76
2022/08/22 11:29:00;;;;;;;2.70;2.40;;;;;;;;;;5086494;28;20216;-73
2022/08/22 11:31:47;;;;;;;3.30;2.67;;;;;;;;;;5084814;28;20687;-75
2022/08/22 11:34:46;;;;;;;2.70;2.50;;;;;;;;;;5086308;28;20191;-75
2022/08/22 11:37:21;;;;;;;3.03;2.50;;;;;;;;;;5039759;28;20689;-75
2022/08/22 11:39:56;;;;;;;3.00;2.70;;;;;;;;;;5082619;28;20203;-76
2022/08/22 11:42:36;;;;;;;3.93;2.90;;;;;;;;;;5083752;28;20200;-75
2022/08/22 11:45:05;;;;;;;4.83;2.37;;;;;;;;;;5082818;28;20193;-77
2022/08/22 11:47:35;;;;;;;2.77;2.40;;;;;;;;;;5084793;28;20180;-76
2022/08/22 11:50:07;;;;;;;3.10;2.83;;;;;;;;;;5085654;28;20309;-77
2022/08/22 11:52:49;;;;;;;2.57;2.30;;;;;;;;;;5084456;28;20292;-75
2022/08/22 11:55:16;;;;;;;2.70;2.50;;;;;;;;;;5078236;28;20188;-73
2022/08/22 11:57:43;;;;;;;3.03;2.80;;;;;;;;;;5080264;28;20193;-75
2022/08/22 12:00:25;;;;;;;5.20;2.73;;;;;;;;;;5084854;28;20561;-77
2022/08/22 12:02:57;;;;;;;3.60;2.53;;;;;;;;;;5086395;28;20192;-73
2022/08/22 12:05:28;;;;;;;3.73;2.67;;;;;;;;;;5080840;28;20192;-73
2022/08/22 12:07:58;;;;;;;2.80;2.60;;;;;;;;;;5085471;28;20178;-73
2022/08/22 12:10:31;;;;;;;3.20;2.30;;;;;;;;;;5083405;28;20274;-74
2022/08/22 12:12:59;;;;;;;3.13;2.60;;;;;;;;;;5101382;28;20211;-74
2022/08/22 12:15:37;;;;;;;3.17;2.80;;;;;;;;;;5084588;28;20252;-74
2022/08/22 12:18:04;;;;;;;2.60;2.40;;;;;;;;;;5087476;28;20543;-74
2022/08/22 12:20:31;;;;;;;3.43;2.80;;;;;;;;;;5088090;28;20273;-76
2022/08/22 12:23:12;;;;;;;3.00;2.70;;;;;;;;;;5087553;28;20201;-74
2022/08/22 12:25:44;;;;;;;3.63;2.60;;;;;;;;;;5090490;28;20238;-76
2022/08/22 12:28:31;;;;;;;4.33;2.60;;;;;;;;;;5085012;28;20244;-76
2022/08/22 12:31:16;;;;;;;4.20;2.93;;;;;;;;;;5089493;28;20703;-76
2022/08/22 12:33:51;;;;;;;4.33;2.60;;;;;;;;;;5087425;28;20214;-76
2022/08/22 12:36:17;;;;;;;4.33;2.80;;;;;;;;;;5087453;28;20299;-77
2022/08/22 12:39:04;;;;;;;3.67;2.70;;;;;;;;;;5089704;28;20797;-77
2022/08/22 12:41:56;;;;;;;2.87;2.67;;;;;;;;;;5087595;28;20222;-75
2022/08/22 12:44:38;;;;;;;3.60;2.70;;;;;;;;;;5077209;28;20188;-77
2022/08/22 12:47:07;;;;;;;2.90;2.50;;;;;;;;;;5090795;28;20191;-76
2022/08/22 12:49:49;;;;;;;3.00;2.50;;;;;;;;;;5084773;28;20203;-78
2022/08/22 12:52:21;;;;;;;2.67;2.47;;;;;;;;;;5084872;28;20355;-77
2022/08/22 12:55:04;;;;;;;2.80;2.60;;;;;;;;;;5085139;28;20572;-77
2022/08/22 12:57:42;;;;;;;3.00;2.50;;;;;;;;;;5089669;28;20219;-77
2022/08/22 13:00:19;;;;;;;3.50;2.50;;;;;;;;;;5084317;28;20202;-77
2022/08/22 13:02:45;;;;;;;2.40;2.20;;;;;;;;;;5085286;28;20293;-77
2022/08/22 13:05:18;;;;;;;2.77;2.57;;;;;;;;;;5089027;28;20186;-77
2022/08/22 13:07:49;;;;;;;2.50;2.23;;;;;;;;;;5090322;28;20189;-77
2022/08/22 13:10:15;;;;;;;5.00;2.30;;;;;;;;;;5085015;28;20179;-77
2022/08/22 13:12:46;;;;;;;2.83;2.30;;;;;;;;;;5085747;28;20264;-77
2022/08/22 13:15:18;;;;;;;2.47;2.27;;;;;;;;;;5090571;28;20185;-78
2022/08/22 13:17:44;;;;;;;2.40;2.20;;;;;;;;;;5086704;28;20191;-79
2022/08/22 13:20:20;;;;;;;2.40;2.20;;;;;;;;;;5089660;28;20545;-77
2022/08/22 13:22:51;;;;;;;2.83;2.30;;;;;;;;;;5086959;28;20208;-77
2022/08/22 13:25:30;;;;;;;3.00;2.20;;;;;;;;;;5084942;28;20186;-78
2022/08/22 13:27:59;;;;;;;2.43;2.23;;;;;;;;;;5076681;28;20188;-78
2022/08/22 13:30:34;;;;;;;2.57;2.00;;;;;;;;;;5047698;28;20685;-77
2022/08/22 13:33:04;;;;;;;2.08;1.98;;;;;;;;;;5084525;28;20199;-78
2022/08/22 13:35:33;;;;;;;2.70;2.33;;;;;;;;;;5087321;28;20201;-78
2022/08/22 13:38:07;;;;;;;2.33;1.98;;;;;;;;;;5087390;28;21743;-77
2022/08/22 13:40:35;;;;;;;2.47;1.95;;;;;;;;;;5065979;28;20237;-77
2022/08/22 13:43:07;;;;;;;2.28;2.00;;;;;;;;;;5086779;28;20340;-77
2022/08/22 13:45:34;;;;;;;2.65;2.15;;;;;;;;;;5086331;28;20185;-79
2022/08/22 13:48:12;;;;;;;2.13;1.92;;;;;;;;;;5085253;28;20177;-77
2022/08/22 13:51:04;;;;;;;2.28;2.08;;;;;;;;;;5084671;28;20260;-78
2022/08/22 13:53:36;;;;;;;2.78;2.25;;;;;;;;;;5047060;28;20285;-79
2022/08/22 13:56:09;;;;;;;2.30;2.10;;;;;;;;;;5085484;28;20201;-77
2022/08/22 13:58:40;;;;;;;2.67;2.33;;;;;;;;;;5086767;28;20186;-77
2022/08/22 14:01:07;;;;;;;3.10;2.20;;;;;;;;;;5084122;28;20195;-77
2022/08/22 14:03:38;;;;;;;2.40;2.20;;;;;;;;;;5087043;28;20231;-78
2022/08/22 14:06:09;;;;;;;2.60;2.27;;;;;;;;;;5085622;28;20747;-78
2022/08/22 14:08:36;;;;;;;2.70;2.50;;;;;;;;;;5088596;28;20541;-79
2022/08/22 14:11:09;;;;;;;3.50;2.30;;;;;;;;;;5085509;28;20199;-77
2022/08/22 14:13:36;;;;;;;2.77;2.50;;;;;;;;;;5089963;28;20227;-77
2022/08/22 14:16:03;;;;;;;3.07;2.77;;;;;;;;;;5088177;28;20223;-77
2022/08/22 14:18:35;;;;;;;2.90;2.30;;;;;;;;;;5090598;28;20179;-77
2022/08/22 14:21:19;;;;;;;3.50;2.33;;;;;;;;;;5087112;28;20205;-77
2022/08/22 14:23:50;;;;;;;2.60;2.40;;;;;;;;;;5085139;28;20212;-77
2022/08/22 14:26:27;;;;;;;4.13;2.60;;;;;;;;;;5088581;28;20201;-76
2022/08/22 14:28:55;;;;;;;2.50;2.30;;;;;;;;;;5087549;28;20273;-77
2022/08/22 14:31:25;;;;;;;2.67;2.47;;;;;;;;;;5085605;28;20271;-76
2022/08/22 14:33:53;;;;;;;2.77;2.40;;;;;;;;;;5086962;28;20209;-77
2022/08/22 14:36:24;;;;;;;2.77;2.57;;;;;;;;;;5089664;28;20248;-77
2022/08/22 14:38:55;;;;;;;3.07;2.50;;;;;;;;;;5084539;28;20193;-77
2022/08/22 14:41:27;;;;;;;3.13;2.30;;;;;;;;;;5081677;28;20577;-79
2022/08/22 14:43:59;;;;;;;3.50;2.60;;;;;;;;;;5081781;28;20295;-78
2022/08/22 14:46:36;;;;;;;4.43;2.50;;;;;;;;;;5087033;28;20182;-76
2022/08/22 14:49:02;;;;;;;3.10;2.80;;;;;;;;;;5085827;28;20204;-77
2022/08/22 14:51:29;;;;;;;3.07;2.43;;;;;;;;;;5082064;28;20182;-77
2022/08/22 14:54:08;;;;;;;4.13;2.63;;;;;;;;;;5086367;28;20702;-76
2022/08/22 14:56:36;;;;;;;4.70;2.70;;;;;;;;;;5083563;28;20295;-76
2022/08/22 14:59:06;;;;;;;3.20;2.90;;;;;;;;;;5096068;28;20666;-76
2022/08/22 15:01:34;;;;;;;2.93;2.50;;;;;;;;;;5087194;28;20548;-78
2022/08/22 15:04:11;;;;;;;2.67;2.47;;;;;;;;;;5088119;28;20215;-77
2022/08/22 15:06:44;;;;;;;9.67;2.70;;;;;;;;;;5087438;28;20255;-76
2022/08/22 15:09:31;;;;;;;4.57;2.70;;;;;;;;;;5088106;28;20256;-77
2022/08/22 15:11:57;;;;;;;4.80;2.60;;;;;;;;;;5090525;28;20204;-77
2022/08/22 15:14:32;;;;;;;3.27;2.87;;;;;;;;;;5089121;28;20678;-77
2022/08/22 15:17:00;;;;;;;5.53;2.60;;;;;;;;;;5075678;28;20223;-77
2022/08/22 15:19:27;;;;;;;2.70;2.50;;;;;;;;;;5094717;28;20569;-76
2022/08/22 15:22:20;;;;;;;3.37;2.80;;;;;;;;;;5086558;28;20301;-77
2022/08/22 15:24:53;;;;;;;3.33;2.33;;;;;;;;;;5088333;28;20250;-77
2022/08/22 15:27:20;;;;;;;2.97;2.43;;;;;;;;;;5088646;28;20208;-77
2022/08/22 15:29:51;;;;;;;3.53;2.70;;;;;;;;;;5090416;28;20189;-77